createdAt,value
2019-06-08T00:01:54.561Z,100851.09
2019-06-08T00:04:25.486Z,100850.82
2019-06-08T00:06:57.424Z,100850.95
2019-06-08T00:09:28.365Z,100848.34
2019-06-08T00:11:59.664Z,100855.08
2019-06-08T00:14:30.504Z,100858.48
2019-06-08T00:17:03.087Z,100859.02
2019-06-08T00:19:34.859Z,100869.11
2019-06-08T00:22:06.397Z,100869.06
2019-06-08T00:24:38.729Z,100871.94
2019-06-08T00:27:10.940Z,100870.22
2019-06-08T00:29:43.281Z,100873.45
2019-06-08T00:32:16.701Z,100877.12
2019-06-08T00:34:48.998Z,100875.78
2019-06-08T00:37:33.216Z,100886.02
2019-06-08T00:40:05.097Z,100891.65
2019-06-08T00:42:37.384Z,100896.09
2019-06-08T00:45:21.576Z,100896.57
2019-06-08T00:47:54.811Z,100897.41
2019-06-08T00:50:27.255Z,100910.52
2019-06-08T00:53:00.207Z,100907.98
2019-06-08T00:55:31.955Z,100911.48
2019-06-08T00:58:22.004Z,100921.31
2019-06-08T01:01:06.796Z,100925.95
2019-06-08T01:03:38.919Z,100919.70
2019-06-08T01:06:11.084Z,100924.42
2019-06-08T01:08:43.062Z,100929.94
2019-06-08T01:11:15.480Z,100929.55
2019-06-08T01:13:48.871Z,100940.17
2019-06-08T01:16:22.894Z,100934.91
2019-06-08T01:18:54.668Z,100941.75
2019-06-08T01:21:27.963Z,100939.03
2019-06-08T01:24:00.571Z,100942.67
2019-06-08T01:26:32.138Z,100942.85
2019-06-08T01:29:04.075Z,100942.85
2019-06-08T01:31:36.746Z,100953.16
2019-06-08T01:34:08.596Z,100958.69
2019-06-08T01:36:40.719Z,100958.95
2019-06-08T01:39:11.651Z,100959.52
2019-06-08T01:41:45.222Z,100968.87
2019-06-08T01:44:17.729Z,100968.69
2019-06-08T01:46:52.554Z,100972.67
2019-06-08T01:49:26.175Z,100978.83
2019-06-08T01:51:58.377Z,100975.17
2019-06-08T01:54:37.894Z,100980.64
2019-06-08T01:57:10.211Z,100986.35
2019-06-08T01:59:43.684Z,100988.00
2019-06-08T02:02:16.018Z,100983.19
2019-06-08T02:04:47.949Z,100983.48
2019-06-08T02:07:20.571Z,100990.34
2019-06-08T02:09:53.455Z,100994.13
2019-06-08T02:12:26.715Z,100993.98
2019-06-08T02:14:59.099Z,101006.44
2019-06-08T02:17:33.395Z,101011.41
2019-06-08T02:20:06.894Z,101012.67
2019-06-08T02:22:39.371Z,101014.13
2019-06-08T02:25:11.192Z,101017.16
2019-06-08T02:27:43.460Z,101013.46
2019-06-08T02:30:18.106Z,101013.73
2019-06-08T02:32:50.857Z,101023.18
2019-06-08T02:35:23.675Z,101022.52
2019-06-08T02:37:56.104Z,101021.80
2019-06-08T02:40:30.209Z,101021.74
2019-06-08T02:43:02.848Z,101021.82
2019-06-08T02:45:36.932Z,101030.34
2019-06-08T02:48:09.218Z,101023.48
2019-06-08T02:51:10.724Z,101030.99
2019-06-08T02:53:43.036Z,101033.32
2019-06-08T02:56:20.136Z,101030.61
2019-06-08T02:58:54.158Z,101024.50
2019-06-08T03:01:29.538Z,101038.56
2019-06-08T03:04:03.022Z,101044.08
2019-06-08T03:06:43.862Z,101045.75
2019-06-08T03:09:17.814Z,101045.94
2019-06-08T03:12:04.724Z,101039.48
2019-06-08T03:14:47.797Z,101043.48
2019-06-08T03:17:22.387Z,101049.17
2019-06-08T03:19:54.575Z,101045.14
2019-06-08T03:22:27.084Z,101049.19
2019-06-08T03:24:59.270Z,101047.37
2019-06-08T03:27:32.627Z,101055.16
2019-06-08T03:30:16.018Z,101052.41
2019-06-08T03:32:47.026Z,101059.22
2019-06-08T03:35:13.465Z,101067.76
2019-06-08T03:37:45.914Z,101065.37
2019-06-08T03:40:18.152Z,101072.22
2019-06-08T03:42:51.218Z,101074.47
2019-06-08T03:45:24.808Z,101069.85
2019-06-08T03:47:57.963Z,101078.84
2019-06-08T03:50:30.031Z,101074.28
2019-06-08T03:53:03.128Z,101087.30
2019-06-08T03:55:35.403Z,101086.28
2019-06-08T03:58:10.391Z,101095.97
2019-06-08T04:00:42.471Z,101090.97
2019-06-08T04:03:20.170Z,101098.81
2019-06-08T04:05:51.409Z,101099.95
2019-06-08T04:08:22.911Z,101104.87
2019-06-08T04:10:55.649Z,101104.87
2019-06-08T04:13:29.099Z,101108.47
2019-06-08T04:16:01.420Z,101113.92
2019-06-08T04:18:34.042Z,101120.63
2019-06-08T04:21:06.648Z,101116.52
2019-06-08T04:23:40.438Z,101129.88
2019-06-08T04:26:13.502Z,101130.27
2019-06-08T04:28:47.388Z,101137.92
2019-06-08T04:31:21.806Z,101142.40
2019-06-08T04:33:53.417Z,101141.91
2019-06-08T04:36:26.261Z,101142.55
2019-06-08T04:38:58.674Z,101142.55
2019-06-08T04:41:31.149Z,101152.79
2019-06-08T04:44:03.743Z,101152.08
2019-06-08T04:46:36.315Z,101164.47
2019-06-08T04:49:07.982Z,101166.30
2019-06-08T04:51:42.476Z,101164.31
2019-06-08T04:54:15.976Z,101170.88
2019-06-08T04:56:49.469Z,101172.91
2019-06-08T04:59:22.009Z,101174.59
2019-06-08T05:01:56.291Z,101172.78
2019-06-08T05:04:29.140Z,101177.70
2019-06-08T05:07:01.022Z,101177.83
2019-06-08T05:09:33.527Z,101186.11
2019-06-08T05:12:04.519Z,101187.58
2019-06-08T05:14:36.649Z,101186.18
2019-06-08T05:17:09.918Z,101196.31
2019-06-08T05:19:43.466Z,101197.11
2019-06-08T05:22:18.679Z,101197.05
2019-06-08T05:24:50.296Z,101197.66
2019-06-08T05:27:22.979Z,101208.80
2019-06-08T05:29:57.154Z,101208.88
2019-06-08T05:32:30.100Z,101208.84
2019-06-08T05:35:03.375Z,101213.27
2019-06-08T05:37:35.150Z,101207.91
2019-06-08T05:40:08.279Z,101215.67
2019-06-08T05:42:42.111Z,101214.67
2019-06-08T05:45:12.726Z,101218.82
2019-06-08T05:47:53.783Z,101221.36
2019-06-08T05:50:33.685Z,101232.11
2019-06-08T05:53:06.429Z,101232.11
2019-06-08T05:55:37.284Z,101246.13
2019-06-08T05:58:09.138Z,101245.41
2019-06-08T06:00:42.187Z,101247.72
2019-06-08T06:03:14.837Z,101256.49
2019-06-08T06:05:46.867Z,101253.83
2019-06-08T06:08:19.691Z,101255.33
2019-06-08T06:10:51.364Z,101261.64
2019-06-08T06:13:25.286Z,101259.37
2019-06-08T06:15:57.384Z,101262.81
2019-06-08T06:18:30.764Z,101262.66
2019-06-08T06:21:10.920Z,101272.88
2019-06-08T06:23:37.788Z,101257.86
2019-06-08T06:26:10.270Z,101268.61
2019-06-08T06:28:43.234Z,101269.84
2019-06-08T06:31:14.804Z,101272.28
2019-06-08T06:33:47.969Z,101274.27
2019-06-08T06:36:20.809Z,101277.87
2019-06-08T06:38:53.292Z,101272.13
2019-06-08T06:41:25.937Z,101272.41
2019-06-08T06:43:58.514Z,101277.42
2019-06-08T06:46:31.256Z,101281.36
2019-06-08T06:49:02.922Z,101289.94
2019-06-08T06:51:35.876Z,101285.20
2019-06-08T06:54:08.562Z,101299.77
2019-06-08T06:56:41.069Z,101300.17
2019-06-08T06:59:14.938Z,101298.99
2019-06-08T07:01:47.587Z,101308.44
2019-06-08T07:04:20.217Z,101306.19
2019-06-08T07:06:54.490Z,101308.05
2019-06-08T07:09:27.031Z,101315.75
2019-06-08T07:11:59.025Z,101316.64
2019-06-08T07:14:30.916Z,101321.00
2019-06-08T07:17:03.798Z,101315.37
2019-06-08T07:19:37.364Z,101318.97
2019-06-08T07:22:10.060Z,101322.75
2019-06-08T07:24:42.879Z,101329.45
2019-06-08T07:27:15.663Z,101341.62
2019-06-08T07:29:49.120Z,101344.77
2019-06-08T07:32:22.750Z,101354.47
2019-06-08T07:34:55.299Z,101358.81
2019-06-08T07:37:28.389Z,101361.43
2019-06-08T07:40:00.274Z,101364.77
2019-06-08T07:42:32.230Z,101369.28
2019-06-08T07:45:13.650Z,101364.38
2019-06-08T07:47:45.268Z,101378.72
2019-06-08T07:50:17.898Z,101361.80
2019-06-08T07:52:51.262Z,101381.44
2019-06-08T07:55:23.774Z,101385.89
2019-06-08T07:57:56.280Z,101391.66
2019-06-08T08:00:28.421Z,101389.49
2019-06-08T08:02:59.851Z,101391.73
2019-06-08T08:05:42.650Z,101389.06
2019-06-08T08:08:16.260Z,101391.34
2019-06-08T08:10:48.353Z,101385.89
2019-06-08T08:13:20.306Z,101385.94
2019-06-08T08:16:00.829Z,101395.65
2019-06-08T08:18:32.915Z,101405.67
2019-06-08T08:21:18.921Z,101395.34
2019-06-08T08:23:38.799Z,101391.91
2019-06-08T08:26:12.041Z,101393.63
2019-06-08T08:28:44.634Z,101394.14
2019-06-08T08:31:18.415Z,101401.47
2019-06-08T08:34:05.591Z,101408.02
2019-06-08T08:36:33.899Z,101415.02
2019-06-08T08:39:13.700Z,101402.01
2019-06-08T08:41:49.906Z,101412.91
2019-06-08T08:44:20.042Z,101416.56
2019-06-08T08:46:54.628Z,101426.97
2019-06-08T08:49:28.066Z,101422.49
2019-06-08T08:52:01.853Z,101426.62
2019-06-08T08:54:34.398Z,101424.80
2019-06-08T08:57:08.302Z,101416.79
2019-06-08T08:59:39.597Z,101422.98
2019-06-08T09:02:12.410Z,101429.70
2019-06-08T09:04:47.598Z,101427.94
2019-06-08T09:07:20.094Z,101414.64
2019-06-08T09:09:53.470Z,101425.65
2019-06-08T09:12:24.807Z,101422.45
2019-06-08T09:14:56.723Z,101424.35
2019-06-08T09:17:29.349Z,101426.16
2019-06-08T09:20:03.610Z,101424.14
2019-06-08T09:22:47.192Z,101418.20
2019-06-08T09:25:08.812Z,101417.63
2019-06-08T09:27:40.893Z,101430.69
2019-06-08T09:30:18.239Z,101425.41
2019-06-08T09:32:49.728Z,101422.42
2019-06-08T09:35:21.852Z,101423.64
2019-06-08T09:37:53.726Z,101429.45
2019-06-08T09:40:31.859Z,101422.91
2019-06-08T09:43:07.404Z,101431.87
2019-06-08T09:45:33.755Z,101430.78
2019-06-08T09:48:08.936Z,101429.17
2019-06-08T09:50:39.299Z,101423.56
2019-06-08T09:53:23.918Z,101425.56
2019-06-08T09:55:44.853Z,101428.06
2019-06-08T09:58:18.125Z,101430.35
2019-06-08T10:00:50.414Z,101421.33
2019-06-08T10:03:22.147Z,101429.20
2019-06-08T10:06:08.002Z,101435.14
2019-06-08T10:08:44.283Z,101430.72
2019-06-08T10:11:15.882Z,101433.79
2019-06-08T10:13:48.967Z,101441.26
2019-06-08T10:16:20.289Z,101446.86
2019-06-08T10:18:51.815Z,101440.79
2019-06-08T10:21:23.583Z,101449.78
2019-06-08T10:23:54.904Z,101457.37
2019-06-08T10:26:28.147Z,101455.02
2019-06-08T10:29:02.217Z,101456.10
2019-06-08T10:31:38.953Z,101457.83
2019-06-08T10:34:10.817Z,101456.51
2019-06-08T10:36:39.231Z,101464.12
2019-06-08T10:39:12.162Z,101454.36
2019-06-08T10:41:44.510Z,101459.16
2019-06-08T10:44:18.239Z,101462.25
2019-06-08T10:46:49.550Z,101460.54
2019-06-08T10:49:20.809Z,101468.78
2019-06-08T10:51:53.352Z,101474.09
2019-06-08T10:54:27.745Z,101466.78
2019-06-08T10:57:00.277Z,101467.81
2019-06-08T10:59:32.585Z,101466.98
2019-06-08T11:02:11.322Z,101462.34
2019-06-08T11:04:43.142Z,101463.89
2019-06-08T11:07:16.244Z,101477.00
2019-06-08T11:09:58.655Z,101469.67
2019-06-08T11:12:30.400Z,101482.94
2019-06-08T11:15:03.604Z,101487.23
2019-06-08T11:17:37.867Z,101481.82
2019-06-08T11:20:13.797Z,101487.89
2019-06-08T11:22:57.840Z,101492.09
2019-06-08T11:25:29.737Z,101488.17
2019-06-08T11:28:01.861Z,101490.86
2019-06-08T11:30:48.103Z,101494.46
2019-06-08T11:33:21.605Z,101486.56
2019-06-08T11:35:54.349Z,101487.89
2019-06-08T11:38:28.819Z,101484.89
2019-06-08T11:41:04.205Z,101490.67
2019-06-08T11:43:35.211Z,101483.70
2019-06-08T11:46:20.914Z,101503.14
2019-06-08T11:48:50.508Z,101501.44
2019-06-08T11:51:22.883Z,101498.28
2019-06-08T11:53:54.442Z,101497.47
2019-06-08T11:56:27.899Z,101508.25
2019-06-08T11:59:01.239Z,101500.66
2019-06-08T12:01:34.092Z,101499.62
2019-06-08T12:04:06.022Z,101502.37
2019-06-08T12:06:38.329Z,101481.80
2019-06-08T12:09:12.309Z,101489.48
2019-06-08T12:11:44.866Z,101499.80
2019-06-08T12:14:17.882Z,101487.28
2019-06-08T12:16:50.859Z,101490.07
2019-06-08T12:19:23.502Z,101490.70
2019-06-08T12:21:57.982Z,101500.84
2019-06-08T12:24:41.301Z,101490.80
2019-06-08T12:27:14.399Z,101492.41
2019-06-08T12:29:37.297Z,101491.52
2019-06-08T12:32:12.100Z,101512.05
2019-06-08T12:34:44.020Z,101491.72
2019-06-08T12:37:18.075Z,101502.95
2019-06-08T12:39:48.665Z,101493.86
2019-06-08T12:42:24.743Z,101491.27
2019-06-08T12:44:53.944Z,101494.14
2019-06-08T12:47:29.226Z,101481.34
2019-06-08T12:50:00.481Z,101489.24
2019-06-08T12:52:31.861Z,101494.94
2019-06-08T12:55:08.087Z,101496.12
2019-06-08T12:57:37.692Z,101499.21
2019-06-08T13:00:11.951Z,101497.47
2019-06-08T13:02:43.892Z,101495.28
2019-06-08T13:05:18.964Z,101501.39
2019-06-08T13:07:50.669Z,101490.13
2019-06-08T13:10:31.581Z,101496.31
2019-06-08T13:13:03.317Z,101507.52
2019-06-08T13:15:35.085Z,101505.19
2019-06-08T13:18:09.843Z,101498.36
2019-06-08T13:20:41.885Z,101496.91
2019-06-08T13:23:14.986Z,101506.16
2019-06-08T13:25:48.138Z,101500.17
2019-06-08T13:28:24.978Z,101500.11
2019-06-08T13:30:53.981Z,101498.03
2019-06-08T13:33:28.083Z,101491.05
2019-06-08T13:36:00.781Z,101499.34
2019-06-08T13:38:32.956Z,101496.87
2019-06-08T13:41:05.255Z,101487.21
2019-06-08T13:43:40.323Z,101501.73
2019-06-08T13:46:11.725Z,101503.05
2019-06-08T13:48:43.366Z,101504.27
2019-06-08T13:51:19.795Z,101511.36
2019-06-08T13:54:08.484Z,101516.69
2019-06-08T13:56:39.983Z,101506.38
2019-06-08T13:59:13.628Z,101503.98
2019-06-08T14:01:47.791Z,101508.55
2019-06-08T14:04:22.549Z,101510.29
2019-06-08T14:07:04.646Z,101512.58
2019-06-08T14:09:38.315Z,101515.59
2019-06-08T14:12:10.690Z,101518.37
2019-06-08T14:14:42.445Z,101515.18
2019-06-08T14:17:15.480Z,101514.30
2019-06-08T14:19:51.434Z,101518.67
2019-06-08T14:22:24.282Z,101527.91
2019-06-08T14:24:57.613Z,101521.19
2019-06-08T14:27:32.925Z,101525.55
2019-06-08T14:30:05.280Z,101526.66
2019-06-08T14:32:38.276Z,101533.73
2019-06-08T14:35:11.229Z,101513.19
2019-06-08T14:37:43.146Z,101519.91
2019-06-08T14:40:24.022Z,101526.38
2019-06-08T14:42:58.100Z,101529.09
2019-06-08T14:45:31.196Z,101523.27
2019-06-08T14:48:02.135Z,101524.02
2019-06-08T14:50:34.025Z,101528.18
2019-06-08T14:53:08.309Z,101535.36
2019-06-08T14:56:07.503Z,101535.55
2019-06-08T14:58:33.211Z,101525.28
2019-06-08T15:01:02.398Z,101522.63
2019-06-08T15:03:48.028Z,101519.02
2019-06-08T15:06:21.117Z,101517.66
2019-06-08T15:09:02.627Z,101518.95
2019-06-08T15:11:37.975Z,101521.24
2019-06-08T15:14:09.881Z,101517.58
2019-06-08T15:16:41.883Z,101517.03
2019-06-08T15:19:13.658Z,101514.78
2019-06-08T15:21:54.913Z,101518.78
2019-06-08T15:24:29.731Z,101508.06
2019-06-08T15:27:00.955Z,101514.44
2019-06-08T15:29:33.083Z,101520.34
2019-06-08T15:32:07.970Z,101519.45
2019-06-08T15:34:39.664Z,101526.58
2019-06-08T15:37:13.495Z,101515.70
2019-06-08T15:39:51.152Z,101523.46
2019-06-08T15:42:22.003Z,101529.77
2019-06-08T15:44:59.392Z,101523.05
2019-06-08T15:47:35.407Z,101530.66
2019-06-08T15:50:17.783Z,101527.80
2019-06-08T15:52:49.538Z,101526.16
2019-06-08T15:55:22.866Z,101527.48
2019-06-08T15:57:55.322Z,101533.77
2019-06-08T16:00:29.263Z,101526.90
2019-06-08T16:03:00.324Z,101539.47
2019-06-08T16:05:31.736Z,101525.61
2019-06-08T16:08:05.498Z,101528.27
2019-06-08T16:10:37.289Z,101525.86
2019-06-08T16:13:10.189Z,101530.89
2019-06-08T16:15:51.640Z,101530.98
2019-06-08T16:18:23.597Z,101538.09
2019-06-08T16:20:56.243Z,101526.61
2019-06-08T16:23:29.881Z,101525.70
2019-06-08T16:26:02.265Z,101531.14
2019-06-08T16:28:36.224Z,101532.84
2019-06-08T16:31:08.638Z,101535.97
2019-06-08T16:33:44.149Z,101528.00
2019-06-08T16:36:24.235Z,101534.27
2019-06-08T16:38:56.711Z,101535.88
2019-06-08T16:41:29.812Z,101529.91
2019-06-08T16:44:04.627Z,101540.80
2019-06-08T16:46:38.540Z,101555.17
2019-06-08T16:49:11.292Z,101554.36
2019-06-08T16:51:43.321Z,101555.34
2019-06-08T16:54:14.732Z,101548.23
2019-06-08T16:56:47.993Z,101548.20
2019-06-08T16:59:30.197Z,101559.00
2019-06-08T17:02:02.932Z,101563.50
2019-06-08T17:04:35.088Z,101556.32
2019-06-08T17:07:08.301Z,101547.73
2019-06-08T17:09:40.295Z,101550.02
2019-06-08T17:12:13.886Z,101555.83
2019-06-08T17:14:48.299Z,101553.97
2019-06-08T17:17:19.493Z,101553.52
2019-06-08T17:19:51.537Z,101550.41
2019-06-08T17:22:23.607Z,101560.67
2019-06-08T17:24:55.447Z,101554.38
2019-06-08T17:27:27.857Z,101558.47
2019-06-08T17:30:08.094Z,101566.15
2019-06-08T17:32:35.880Z,101559.89
2019-06-08T17:35:09.682Z,101557.20
2019-06-08T17:37:43.785Z,101553.17
2019-06-08T17:40:17.056Z,101555.87
2019-06-08T17:42:49.674Z,101562.05
2019-06-08T17:45:21.647Z,101560.36
2019-06-08T17:47:55.278Z,101558.50
2019-06-08T17:50:28.897Z,101550.50
2019-06-08T17:53:02.181Z,101558.08
2019-06-08T17:55:35.120Z,101556.31
2019-06-08T17:58:08.069Z,101557.23
2019-06-08T18:00:41.776Z,101562.97
2019-06-08T18:03:18.421Z,101556.63
2019-06-08T18:05:49.921Z,101563.84
2019-06-08T18:08:25.260Z,101558.86
2019-06-08T18:10:57.586Z,101561.02
2019-06-08T18:13:29.691Z,101559.35
2019-06-08T18:16:02.335Z,101565.77
2019-06-08T18:18:34.207Z,101570.67
2019-06-08T18:21:08.171Z,101566.63
2019-06-08T18:23:40.372Z,101562.13
2019-06-08T18:26:11.871Z,101563.94
2019-06-08T18:28:44.090Z,101558.14
2019-06-08T18:31:18.093Z,101561.25
2019-06-08T18:33:50.642Z,101559.93
2019-06-08T18:36:22.055Z,101561.27
2019-06-08T18:38:53.904Z,101555.83
2019-06-08T18:41:27.175Z,101563.06
2019-06-08T18:43:59.448Z,101567.98
2019-06-08T18:46:30.677Z,101564.40
2019-06-08T18:49:01.568Z,101563.06
2019-06-08T18:51:32.271Z,101567.09
2019-06-08T18:54:11.802Z,101562.16
2019-06-08T18:56:41.874Z,101563.06
2019-06-08T18:59:13.061Z,101561.70
2019-06-08T19:01:45.063Z,101563.97
2019-06-08T19:04:17.440Z,101562.14
2019-06-08T19:06:50.136Z,101565.74
2019-06-08T19:09:23.807Z,101575.59
2019-06-08T19:11:57.460Z,101573.34
2019-06-08T19:14:29.801Z,101580.97
2019-06-08T19:17:01.337Z,101578.72
2019-06-08T19:19:32.547Z,101572.92
2019-06-08T19:22:04.630Z,101568.00
2019-06-08T19:24:40.380Z,101580.09
2019-06-08T19:27:09.088Z,101576.04
2019-06-08T19:29:42.155Z,101575.59
2019-06-08T19:32:21.526Z,101577.84
2019-06-08T19:34:54.945Z,101583.63
2019-06-08T19:37:28.759Z,101587.66
2019-06-08T19:39:59.226Z,101582.30
2019-06-08T19:42:39.124Z,101592.56
2019-06-08T19:45:08.582Z,101595.64
2019-06-08T19:47:40.490Z,101584.97
2019-06-08T19:50:12.676Z,101589.37
2019-06-08T19:52:49.304Z,101588.94
2019-06-08T19:55:19.231Z,101591.09
2019-06-08T19:57:51.822Z,101588.81
2019-06-08T20:00:23.452Z,101601.95
2019-06-08T20:02:55.257Z,101602.84
2019-06-08T20:05:28.702Z,101614.73
2019-06-08T20:08:00.928Z,101613.81
2019-06-08T20:10:32.823Z,101615.57
2019-06-08T20:13:04.820Z,101624.58
2019-06-08T20:15:40.689Z,101626.81
2019-06-08T20:18:10.348Z,101625.57
2019-06-08T20:20:42.042Z,101623.33
2019-06-08T20:23:14.404Z,101629.11
2019-06-08T20:25:50.092Z,101634.09
2019-06-08T20:28:20.763Z,101632.20
2019-06-08T20:30:52.759Z,101630.01
2019-06-08T20:33:27.209Z,101634.08
2019-06-08T20:35:58.932Z,101633.61
2019-06-08T20:38:37.209Z,101638.98
2019-06-08T20:41:03.394Z,101641.18
2019-06-08T20:43:38.029Z,101643.26
2019-06-08T20:46:10.412Z,101652.30
2019-06-08T20:48:42.670Z,101653.20
2019-06-08T20:51:17.087Z,101655.29
2019-06-08T20:53:50.308Z,101658.44
2019-06-08T20:56:21.669Z,101658.02
2019-06-08T20:58:54.092Z,101660.69
2019-06-08T21:01:25.694Z,101660.28
2019-06-08T21:03:58.136Z,101668.28
2019-06-08T21:06:29.323Z,101663.03
2019-06-08T21:09:01.263Z,101667.48
2019-06-08T21:11:33.173Z,101665.20
2019-06-08T21:14:06.448Z,101665.29
2019-06-08T21:16:38.407Z,101668.30
2019-06-08T21:19:11.401Z,101670.16
